createdAt,value
2019-04-20T00:00:43.187Z,13.73
2019-04-20T00:03:08.067Z,13.73
2019-04-20T00:05:41.398Z,13.70
2019-04-20T00:08:19.237Z,13.66
2019-04-20T00:10:52.947Z,13.66
2019-04-20T00:13:24.283Z,13.68
2019-04-20T00:15:45.101Z,13.68
2019-04-20T00:18:15.115Z,13.64
2019-04-20T00:20:45.803Z,13.61
2019-04-20T00:23:26.915Z,13.57
2019-04-20T00:26:15.853Z,13.51
2019-04-20T00:28:58.687Z,13.45
2019-04-20T00:31:25.050Z,13.40
2019-04-20T00:33:50.655Z,13.35
2019-04-20T00:36:10.071Z,13.30
2019-04-20T00:38:44.002Z,13.26
2019-04-20T00:41:13.484Z,13.22
2019-04-20T00:43:42.206Z,13.21
2019-04-20T00:46:21.847Z,13.19
2019-04-20T00:48:50.834Z,13.17
2019-04-20T00:51:30.604Z,13.12
2019-04-20T00:53:48.050Z,13.06
2019-04-20T00:56:16.047Z,13.01
2019-04-20T00:59:03.104Z,12.98
2019-04-20T01:01:37.522Z,12.94
2019-04-20T01:04:09.107Z,12.90
2019-04-20T01:06:42.345Z,12.86
2019-04-20T01:09:16.006Z,12.85
2019-04-20T01:11:48.183Z,12.81
2019-04-20T01:14:26.097Z,12.79
2019-04-20T01:16:56.465Z,12.76
2019-04-20T01:19:19.331Z,12.76
2019-04-20T01:21:53.402Z,12.72
2019-04-20T01:24:24.913Z,12.69
2019-04-20T01:26:55.155Z,12.64
2019-04-20T01:29:29.449Z,12.59
2019-04-20T01:32:05.745Z,12.56
2019-04-20T01:34:38.928Z,12.53
2019-04-20T01:37:14.822Z,12.49
2019-04-20T01:39:35.346Z,12.48
2019-04-20T01:41:58.233Z,12.46
2019-04-20T01:44:35.316Z,12.44
2019-04-20T01:47:01.487Z,12.40
2019-04-20T01:49:31.672Z,12.36
2019-04-20T01:52:07.674Z,12.33
2019-04-20T01:54:48.247Z,12.31
2019-04-20T01:57:26.210Z,12.30
2019-04-20T02:00:03.627Z,12.28
2019-04-20T02:02:46.079Z,12.27
2019-04-20T02:05:17.147Z,12.28
2019-04-20T02:07:44.443Z,12.27
2019-04-20T02:10:14.724Z,12.29
2019-04-20T02:12:44.263Z,12.31
2019-04-20T02:15:23.115Z,12.32
2019-04-20T02:17:58.242Z,12.30
2019-04-20T02:20:34.593Z,12.29
2019-04-20T02:23:01.865Z,12.28
2019-04-20T02:25:16.339Z,12.27
2019-04-20T02:27:50.488Z,12.23
2019-04-20T02:30:47.512Z,12.23
2019-04-20T02:33:37.565Z,12.22
2019-04-20T02:36:11.033Z,12.20
2019-04-20T02:38:36.562Z,12.17
2019-04-20T02:41:07.053Z,12.17
2019-04-20T02:43:41.938Z,12.17
2019-04-20T02:45:58.207Z,12.13
2019-04-20T02:51:04.535Z,12.05
2019-04-20T02:53:31.956Z,12.00
2019-04-20T02:58:39.091Z,11.93
2019-04-20T03:00:52.373Z,11.92
2019-04-20T03:03:16.357Z,11.88
2019-04-20T03:05:41.438Z,11.87
2019-04-20T03:08:20.282Z,11.84
2019-04-20T03:11:05.852Z,11.82
2019-04-20T03:13:26.955Z,11.80
2019-04-20T03:15:53.536Z,11.78
2019-04-20T03:18:21.077Z,11.74
2019-04-20T03:20:54.893Z,11.70
2019-04-20T03:23:30.040Z,11.65
2019-04-20T03:26:09.464Z,11.64
2019-04-20T03:28:50.498Z,11.60
2019-04-20T03:36:42.994Z,11.52
2019-04-20T03:39:03.707Z,11.49
2019-04-20T03:41:22.482Z,11.46
2019-04-20T03:43:43.549Z,11.43
2019-04-20T03:46:15.992Z,11.42
2019-04-20T03:48:59.906Z,11.39
2019-04-20T03:51:34.400Z,11.35
2019-04-20T03:54:08.483Z,11.31
2019-04-20T03:56:55.897Z,11.28
2019-04-20T03:59:19.523Z,11.24
2019-04-20T04:02:22.243Z,11.23
2019-04-20T04:04:34.400Z,11.21
2019-04-20T04:06:49.986Z,11.21
2019-04-20T04:09:25.811Z,11.18
2019-04-20T04:11:58.507Z,11.19
2019-04-20T04:14:17.639Z,11.19
2019-04-20T04:16:51.301Z,11.17
2019-04-20T04:19:24.376Z,11.15
2019-04-20T04:22:04.107Z,11.12
2019-04-20T04:24:29.106Z,11.11
2019-04-20T04:27:03.629Z,11.10
2019-04-20T04:29:43.711Z,11.10
2019-04-20T04:32:15.484Z,11.14
2019-04-20T04:34:40.622Z,11.14
2019-04-20T04:37:10.439Z,11.18
2019-04-20T04:39:47.454Z,11.19
2019-04-20T04:42:17.860Z,11.22
2019-04-20T04:44:34.364Z,11.25
2019-04-20T04:46:58.000Z,11.25
2019-04-20T04:49:30.256Z,11.25
2019-04-20T04:52:02.323Z,11.26
2019-04-20T04:54:33.607Z,11.27
2019-04-20T04:56:54.571Z,11.29
2019-04-20T04:59:23.571Z,11.31
2019-04-20T05:01:55.468Z,11.34
2019-04-20T05:04:54.930Z,11.36
2019-04-20T05:07:09.331Z,11.38
2019-04-20T05:09:25.578Z,11.40
2019-04-20T05:11:59.922Z,11.44
2019-04-20T05:14:38.774Z,11.48
2019-04-20T05:17:11.679Z,11.50
2019-04-20T05:19:47.854Z,11.52
2019-04-20T05:22:19.349Z,11.55
2019-04-20T05:24:53.549Z,11.58
2019-04-20T05:27:40.309Z,11.64
2019-04-20T05:29:51.313Z,11.83
2019-04-20T05:32:33.726Z,12.46
2019-04-20T05:35:15.226Z,13.17
2019-04-20T05:37:50.122Z,13.89
2019-04-20T05:40:18.993Z,14.67
2019-04-20T05:42:49.528Z,15.39
2019-04-20T05:45:19.692Z,16.07
2019-04-20T05:47:47.729Z,16.75
2019-04-20T05:50:23.300Z,17.27
2019-04-20T05:52:58.309Z,17.81
2019-04-20T05:55:29.457Z,18.30
2019-04-20T05:57:56.612Z,18.65
2019-04-20T06:00:34.228Z,18.98
2019-04-20T06:03:00.792Z,19.31
2019-04-20T06:05:27.841Z,19.69
2019-04-20T06:07:59.295Z,19.96
2019-04-20T06:10:38.421Z,20.31
2019-04-20T06:13:17.299Z,20.45
2019-04-20T06:16:06.055Z,20.65
2019-04-20T06:18:49.214Z,21.11
2019-04-20T06:21:35.417Z,21.34
2019-04-20T06:24:02.321Z,21.37
2019-04-20T06:29:08.302Z,21.52
2019-04-20T06:31:58.086Z,21.66
2019-04-20T06:34:40.037Z,21.66
2019-04-20T06:36:57.116Z,21.99
2019-04-20T06:39:55.775Z,22.30
2019-04-20T06:44:39.295Z,22.99
2019-04-20T06:47:24.876Z,22.93
2019-04-20T06:50:15.041Z,23.08
2019-04-20T06:53:20.499Z,23.46
2019-04-20T06:58:54.160Z,24.10
2019-04-20T07:01:48.748Z,24.38
2019-04-20T07:04:33.533Z,24.43
2019-04-20T07:07:14.610Z,24.47
2019-04-20T07:09:46.201Z,24.66
2019-04-20T07:12:09.426Z,24.68
2019-04-20T07:14:34.450Z,24.67
2019-04-20T07:17:29.818Z,24.96
2019-04-20T07:20:00.234Z,25.14
2019-04-20T07:22:46.516Z,25.17
2019-04-20T07:25:06.351Z,25.23
2019-04-20T07:27:46.896Z,25.15
2019-04-20T07:30:14.986Z,25.32
2019-04-20T07:32:48.399Z,25.44
2019-04-20T07:35:14.513Z,25.47
2019-04-20T07:38:10.306Z,25.52
2019-04-20T07:40:23.236Z,25.67
2019-04-20T07:42:52.397Z,25.88
2019-04-20T07:45:28.297Z,25.91
2019-04-20T07:47:55.290Z,26.04
2019-04-20T07:50:13.535Z,26.23
2019-04-20T07:52:42.620Z,26.31
2019-04-20T07:57:48.890Z,26.32
2019-04-20T08:00:38.299Z,26.24
2019-04-20T08:03:20.151Z,26.15
2019-04-20T08:05:48.463Z,26.10
2019-04-20T08:08:23.967Z,26.20
2019-04-20T08:10:53.649Z,26.30
2019-04-20T08:13:41.297Z,26.49
2019-04-20T08:16:00.660Z,26.62
2019-04-20T08:18:31.053Z,26.60
2019-04-20T08:21:02.678Z,26.70
2019-04-20T08:23:34.759Z,26.73
2019-04-20T08:25:52.347Z,26.93
2019-04-20T08:28:33.877Z,27.23
2019-04-20T08:31:15.577Z,27.23
2019-04-20T08:34:01.727Z,27.23
2019-04-20T08:36:28.629Z,27.38
2019-04-20T08:41:23.461Z,27.45
2019-04-20T08:46:26.502Z,27.86
2019-04-20T08:48:56.512Z,27.77
2019-04-20T08:51:25.869Z,27.76
2019-04-20T08:56:18.496Z,27.71
2019-04-20T08:58:36.567Z,27.90
2019-04-20T09:01:08.605Z,27.70
2019-04-20T09:03:46.249Z,27.70
2019-04-20T09:06:18.235Z,27.76
2019-04-20T09:08:46.668Z,27.59
2019-04-20T09:11:24.572Z,27.39
2019-04-20T09:13:43.158Z,27.51
2019-04-20T09:16:08.735Z,27.70
2019-04-20T09:18:50.318Z,27.89
2019-04-20T09:21:24.259Z,28.05
2019-04-20T09:24:18.348Z,28.35
2019-04-20T09:26:37.708Z,28.52
2019-04-20T09:29:12.742Z,28.36
2019-04-20T09:31:39.525Z,28.42
2019-04-20T09:34:39.400Z,28.43
2019-04-20T09:36:53.760Z,28.57
2019-04-20T09:39:31.579Z,28.51
2019-04-20T09:42:04.671Z,28.35
2019-04-20T09:44:37.575Z,28.21
2019-04-20T09:47:06.435Z,28.17
2019-04-20T09:49:47.236Z,28.20
2019-04-20T09:52:17.029Z,28.12
2019-04-20T09:54:56.368Z,28.26
2019-04-20T09:57:26.854Z,28.37
2019-04-20T09:59:55.338Z,28.40
2019-04-20T10:02:15.730Z,28.44
2019-04-20T10:04:37.622Z,28.45
2019-04-20T10:07:12.886Z,28.38
2019-04-20T10:09:41.134Z,28.45
2019-04-20T10:12:07.919Z,28.56
2019-04-20T10:14:36.670Z,28.66
2019-04-20T10:17:05.751Z,28.55
2019-04-20T10:19:37.367Z,28.50
2019-04-20T10:22:04.795Z,28.52
2019-04-20T10:24:34.636Z,28.60
2019-04-20T10:27:03.510Z,28.60
2019-04-20T10:29:33.479Z,28.60
2019-04-20T10:32:06.984Z,28.85
2019-04-20T10:34:32.818Z,29.25
2019-04-20T10:37:03.838Z,29.34
2019-04-20T10:39:34.419Z,29.41
2019-04-20T10:42:04.345Z,29.55
2019-04-20T10:44:34.667Z,29.35
2019-04-20T10:47:03.457Z,29.37
2019-04-20T10:49:33.233Z,29.62
2019-04-20T10:52:02.026Z,29.57
2019-04-20T10:54:30.684Z,29.33
2019-04-20T10:56:59.467Z,29.12
2019-04-20T10:59:29.704Z,28.98
2019-04-20T11:01:58.432Z,28.88
2019-04-20T11:04:28.423Z,29.02
2019-04-20T11:06:57.109Z,29.00
2019-04-20T11:09:26.884Z,29.00
2019-04-20T11:11:56.575Z,28.94
2019-04-20T11:14:31.185Z,28.79
2019-04-20T11:16:56.183Z,28.86
2019-04-20T11:19:25.300Z,28.91
2019-04-20T11:21:54.445Z,28.80
2019-04-20T11:24:23.095Z,28.77
2019-04-20T11:26:52.094Z,29.02
2019-04-20T11:29:22.016Z,29.13
2019-04-20T11:31:54.316Z,29.38
2019-04-20T11:34:26.959Z,29.32
2019-04-20T11:36:52.988Z,29.44
2019-04-20T11:39:22.976Z,29.50
2019-04-20T11:41:51.792Z,29.60
2019-04-20T11:44:20.358Z,29.51
2019-04-20T11:46:50.286Z,29.65
2019-04-20T11:49:19.444Z,29.73
2019-04-20T11:51:48.116Z,29.60
2019-04-20T11:54:16.695Z,29.64
2019-04-20T11:56:47.226Z,29.60
2019-04-20T11:59:16.605Z,29.64
2019-04-20T12:01:52.165Z,29.72
2019-04-20T12:04:44.200Z,29.79
2019-04-20T12:07:08.893Z,29.92
2019-04-20T12:09:37.994Z,29.97
2019-04-20T12:12:15.748Z,30.15
2019-04-20T12:14:37.004Z,30.20
2019-04-20T12:17:05.882Z,30.09
2019-04-20T12:19:36.177Z,30.14
2019-04-20T12:22:05.621Z,30.18
2019-04-20T12:24:34.383Z,30.24
2019-04-20T12:27:03.008Z,30.26
2019-04-20T12:29:32.095Z,30.23
2019-04-20T12:32:02.295Z,30.00
2019-04-20T12:34:30.973Z,29.93
2019-04-20T12:37:00.696Z,29.79
2019-04-20T12:39:29.315Z,29.64
2019-04-20T12:42:02.154Z,29.46
2019-04-20T12:44:28.384Z,29.47
2019-04-20T12:46:57.200Z,29.42
2019-04-20T12:49:25.914Z,29.38
2019-04-20T12:51:59.633Z,29.33
2019-04-20T12:54:24.939Z,29.09
2019-04-20T12:56:53.573Z,29.20
2019-04-20T12:59:23.351Z,29.27
2019-04-20T13:01:53.333Z,29.04
2019-04-20T13:04:22.705Z,28.86
2019-04-20T13:06:54.636Z,28.73
2019-04-20T13:09:22.884Z,28.73
2019-04-20T13:12:04.806Z,28.81
2019-04-20T13:14:50.671Z,28.95
2019-04-20T13:17:20.015Z,29.11
2019-04-20T13:19:49.233Z,29.18
2019-04-20T13:22:18.981Z,29.13
2019-04-20T13:24:47.742Z,29.31
2019-04-20T13:27:16.808Z,29.52
2019-04-20T13:29:47.894Z,29.54
2019-04-20T13:32:16.020Z,29.41
2019-04-20T13:34:44.778Z,29.51
2019-04-20T13:37:13.841Z,29.35
2019-04-20T13:39:42.768Z,29.33
2019-04-20T13:42:17.518Z,29.24
2019-04-20T13:44:43.173Z,29.05
2019-04-20T13:47:12.761Z,28.90
2019-04-20T13:49:43.040Z,28.55
2019-04-20T13:52:12.813Z,28.28
2019-04-20T13:54:42.141Z,28.17
2019-04-20T13:57:13.529Z,28.02
2019-04-20T13:59:45.779Z,28.12
2019-04-20T14:02:35.087Z,28.06
2019-04-20T14:05:06.655Z,28.03
2019-04-20T14:07:35.866Z,27.87
2019-04-20T14:10:07.008Z,27.69
2019-04-20T14:12:39.033Z,27.53
2019-04-20T14:15:08.976Z,27.46
2019-04-20T14:17:39.128Z,27.43
2019-04-20T14:20:15.037Z,27.33
2019-04-20T14:22:39.411Z,27.09
2019-04-20T14:25:09.045Z,26.97
2019-04-20T14:27:40.219Z,26.81
2019-04-20T14:30:09.293Z,26.64
2019-04-20T14:32:38.915Z,26.49
2019-04-20T14:35:09.188Z,26.28
2019-04-20T14:37:39.426Z,26.08
2019-04-20T14:40:12.592Z,25.87
2019-04-20T14:42:46.388Z,25.72
2019-04-20T14:45:14.442Z,25.62
2019-04-20T14:47:51.946Z,25.49
2019-04-20T14:50:25.932Z,25.32
2019-04-20T14:52:55.595Z,25.15
2019-04-20T14:55:25.737Z,24.98
2019-04-20T14:57:57.315Z,24.81
2019-04-20T15:00:58.744Z,24.67
2019-04-20T15:03:40.908Z,24.52
2019-04-20T15:06:11.815Z,24.36
2019-04-20T15:08:42.888Z,24.22
2019-04-20T15:11:12.807Z,24.15
2019-04-20T15:13:42.997Z,24.08
2019-04-20T15:16:12.848Z,24.00
2019-04-20T15:18:54.647Z,23.93
2019-04-20T15:21:37.473Z,23.87
2019-04-20T15:24:06.478Z,23.80
2019-04-20T15:26:36.268Z,23.70
2019-04-20T15:29:08.420Z,23.66
2019-04-20T15:31:40.064Z,23.60
2019-04-20T15:34:08.922Z,23.55
2019-04-20T15:36:40.241Z,23.52
2019-04-20T15:39:12.227Z,23.48
2019-04-20T15:41:41.077Z,23.43
2019-04-20T15:44:11.144Z,23.38
2019-04-20T15:46:45.578Z,23.37
2019-04-20T15:49:18.269Z,23.33
2019-04-20T15:51:50.033Z,23.28
2019-04-20T15:54:19.720Z,23.26
2019-04-20T15:56:57.009Z,23.22
2019-04-20T15:59:24.343Z,23.21
2019-04-20T16:02:05.418Z,23.17
2019-04-20T16:04:52.624Z,23.15
2019-04-20T16:07:23.444Z,23.12
2019-04-20T16:09:52.295Z,23.08
2019-04-20T16:12:22.901Z,23.05
2019-04-20T16:14:53.505Z,23.03
2019-04-20T16:17:25.186Z,23.00
2019-04-20T16:20:01.331Z,22.99
2019-04-20T16:22:34.364Z,22.96
2019-04-20T16:25:21.541Z,22.93
2019-04-20T16:27:50.162Z,22.89
2019-04-20T16:30:25.317Z,22.86
2019-04-20T16:32:54.623Z,22.82
2019-04-20T16:35:28.710Z,22.80
2019-04-20T16:38:00.051Z,22.76
2019-04-20T16:40:33.589Z,22.72
2019-04-20T16:43:15.205Z,22.66
2019-04-20T16:45:34.991Z,22.62
2019-04-20T16:48:05.370Z,22.60
2019-04-20T16:50:35.192Z,22.57
2019-04-20T16:53:04.758Z,22.53
2019-04-20T16:55:34.750Z,22.48
2019-04-20T16:58:10.222Z,22.44
2019-04-20T17:00:43.191Z,22.38
2019-04-20T17:03:19.519Z,22.29
2019-04-20T17:05:51.416Z,22.22
2019-04-20T17:08:27.304Z,22.10
2019-04-20T17:10:58.034Z,21.99
2019-04-20T17:13:40.573Z,21.90
2019-04-20T17:16:05.988Z,21.80
2019-04-20T17:18:37.545Z,21.72
2019-04-20T17:21:16.637Z,21.64
2019-04-20T17:23:45.184Z,21.55
2019-04-20T17:26:25.141Z,21.43
2019-04-20T17:29:10.386Z,21.31
2019-04-20T17:31:43.019Z,21.15
2019-04-20T17:34:29.983Z,21.01
2019-04-20T17:36:46.560Z,20.89
2019-04-20T17:39:30.456Z,20.76
2019-04-20T17:42:07.428Z,20.65
2019-04-20T17:44:44.888Z,20.54
2019-04-20T17:47:24.935Z,20.42
2019-04-20T17:49:42.344Z,20.32
2019-04-20T17:52:25.867Z,20.23
2019-04-20T17:54:43.116Z,20.13
2019-04-20T17:57:13.142Z,20.05
2019-04-20T17:59:52.148Z,19.95
2019-04-20T18:02:30.663Z,19.86
2019-04-20T18:05:14.220Z,19.75
2019-04-20T18:07:56.593Z,19.66
2019-04-20T18:10:11.493Z,19.57
2019-04-20T18:12:38.378Z,19.43
2019-04-20T18:15:20.545Z,19.33
2019-04-20T18:17:50.040Z,19.26
2019-04-20T18:20:03.297Z,19.19
2019-04-20T18:22:32.191Z,19.12
2019-04-20T18:25:25.782Z,19.04
2019-04-20T18:27:53.602Z,18.97
2019-04-20T18:30:26.285Z,18.84
2019-04-20T18:32:43.185Z,18.72
2019-04-20T18:35:14.018Z,18.59
2019-04-20T18:37:45.384Z,18.48
2019-04-20T18:40:26.629Z,18.37
2019-04-20T18:42:55.878Z,18.25
2019-04-20T18:45:41.119Z,18.14
2019-04-20T18:48:14.757Z,18.02
2019-04-20T18:50:32.794Z,17.93
2019-04-20T18:52:58.014Z,17.83
2019-04-20T18:55:38.766Z,17.74
2019-04-20T18:57:59.262Z,17.68
2019-04-20T19:00:32.527Z,17.63
2019-04-20T19:03:09.745Z,17.58
2019-04-20T19:05:33.547Z,17.55
2019-04-20T19:08:06.752Z,17.55
2019-04-20T19:10:36.771Z,17.52
2019-04-20T19:13:08.468Z,17.54
2019-04-20T19:16:01.990Z,17.51
2019-04-20T19:18:36.636Z,17.48
2019-04-20T19:20:55.111Z,17.43
2019-04-20T19:23:25.150Z,17.40
2019-04-20T19:26:01.275Z,17.39
2019-04-20T19:28:28.952Z,17.37
2019-04-20T19:31:10.460Z,17.33
2019-04-20T19:33:38.835Z,17.30
2019-04-20T19:36:12.074Z,17.26
2019-04-20T19:38:38.868Z,17.26
2019-04-20T19:41:07.538Z,17.23
2019-04-20T19:43:33.758Z,17.22
2019-04-20T19:46:40.689Z,17.19
2019-04-20T19:48:43.199Z,17.14
2019-04-20T19:51:28.433Z,17.09
2019-04-20T19:53:54.503Z,17.02
2019-04-20T19:56:24.299Z,16.96
2019-04-20T19:58:54.247Z,16.87
2019-04-20T20:01:13.651Z,16.77
2019-04-20T20:03:50.647Z,16.66
2019-04-20T20:06:29.300Z,16.57
2019-04-20T20:08:58.012Z,16.47
2019-04-20T20:11:30.459Z,16.38
2019-04-20T20:13:59.170Z,16.27
2019-04-20T20:16:50.440Z,16.15
2019-04-20T20:19:08.521Z,16.09
2019-04-20T20:21:50.577Z,16.02
2019-04-20T20:24:05.974Z,15.99
2019-04-20T20:26:48.742Z,15.95
2019-04-20T20:29:23.178Z,15.91
2019-04-20T20:32:03.643Z,15.82
2019-04-20T20:34:24.519Z,15.77
2019-04-20T20:36:53.986Z,15.72
2019-04-20T20:39:23.632Z,15.66
2019-04-20T20:41:57.832Z,15.61
2019-04-20T20:44:28.563Z,15.54
2019-04-20T20:47:49.354Z,15.50
2019-04-20T20:50:20.374Z,15.46
2019-04-20T20:52:44.042Z,15.42
2019-04-20T20:55:06.963Z,15.38
2019-04-20T20:57:40.950Z,15.36
2019-04-20T21:00:07.518Z,15.30
2019-04-20T21:02:42.108Z,15.28
2019-04-20T21:05:01.747Z,15.25
2019-04-20T21:07:31.286Z,15.21
2019-04-20T21:10:00.711Z,15.15
2019-04-20T21:12:30.568Z,15.10
2019-04-20T21:15:06.909Z,15.06
2019-04-20T21:17:47.614Z,15.01
2019-04-20T21:20:15.658Z,14.98
2019-04-20T21:22:52.647Z,14.95
2019-04-20T21:25:27.734Z,14.91
2019-04-20T21:27:53.333Z,14.87
2019-04-20T21:30:29.145Z,14.80
2019-04-20T21:32:57.238Z,14.75
2019-04-20T21:35:25.928Z,14.71
2019-04-20T21:38:01.905Z,14.68
2019-04-20T21:40:35.307Z,14.64
2019-04-20T21:43:02.355Z,14.59
2019-04-20T21:45:32.632Z,14.56
2019-04-20T21:48:02.938Z,14.52
2019-04-20T21:50:42.512Z,14.46
2019-04-20T21:53:08.688Z,14.41
2019-04-20T21:55:30.075Z,14.38
2019-04-20T21:58:01.881Z,14.34
2019-04-20T22:00:49.999Z,14.33
2019-04-20T22:03:18.557Z,14.30
2019-04-20T22:05:48.500Z,14.23
2019-04-20T22:08:18.195Z,14.19
2019-04-20T22:10:50.018Z,14.16
2019-04-20T22:13:25.509Z,14.09
2019-04-20T22:15:56.718Z,14.03
2019-04-20T22:18:23.325Z,14.02
2019-04-20T22:21:04.682Z,14.00
2019-04-20T22:23:38.902Z,13.96
2019-04-20T22:26:10.270Z,13.91
2019-04-20T22:28:26.522Z,13.90
2019-04-20T22:30:55.962Z,13.87
2019-04-20T22:33:36.572Z,13.82
2019-04-20T22:36:07.612Z,13.77
2019-04-20T22:38:56.654Z,13.70
2019-04-20T22:41:25.753Z,13.66
2019-04-20T22:43:54.661Z,13.59
2019-04-20T22:46:33.231Z,13.53
2019-04-20T22:49:19.145Z,13.49
2019-04-20T22:51:39.905Z,13.44
2019-04-20T22:54:17.268Z,13.41
2019-04-20T22:56:43.957Z,13.35
2019-04-20T22:59:08.620Z,13.30
2019-04-20T23:01:37.535Z,13.25
2019-04-20T23:03:59.090Z,13.19
2019-04-20T23:06:35.442Z,13.14
2019-04-20T23:09:01.989Z,13.12
2019-04-20T23:11:31.508Z,13.05
2019-04-20T23:13:58.574Z,12.99
2019-04-20T23:16:34.992Z,12.92
2019-04-20T23:18:58.252Z,12.84
2019-04-20T23:21:27.967Z,12.75
2019-04-20T23:24:01.601Z,12.70
2019-04-20T23:26:33.267Z,12.66
2019-04-20T23:29:00.747Z,12.61
2019-04-20T23:31:29.077Z,12.55
2019-04-20T23:34:01.478Z,12.52
2019-04-20T23:36:38.214Z,12.49
2019-04-20T23:39:02.926Z,12.46
2019-04-20T23:41:31.467Z,12.46
2019-04-20T23:44:08.257Z,12.43
2019-04-20T23:46:53.375Z,12.40
2019-04-20T23:49:30.817Z,12.35
2019-04-20T23:52:21.518Z,12.28
2019-04-20T23:54:30.223Z,12.23
2019-04-20T23:56:57.673Z,12.21
2019-04-20T23:59:32.494Z,12.19
